Time;durP1;ratioP1;P1;durP2;ratioP2;P2;SDS_P1;SDS_P2;PMS_P1;PMS_P2;Temp;Humidity;BMP_temperature;BMP_pressure;BME280_temperature;BME280_humidity;BME280_pressure;Samples;Min_cycle;Max_cycle;Signal;HPM_P1;HPM_P2
2022/01/06 00:03:37;;;;;;;98.90;79.00;;;20.50;51.20;;;;;;4348828;60;21100;-33
2022/01/06 00:08:39;;;;;;;92.80;74.93;;;20.50;51.10;;;;;;4346909;60;21077;-26
2022/01/06 00:13:54;;;;;;;95.05;77.20;;;20.50;51.20;;;;;;4361735;60;21573;-34
2022/01/06 00:24:56;;;;;;;95.45;77.62;;;20.40;51.00;;;;;;4342254;60;21071;-37
2022/01/06 00:29:56;;;;;;;90.60;74.12;;;20.50;51.00;;;;;;4355506;60;21847;-33
2022/01/06 00:34:57;;;;;;;92.07;74.85;;;20.50;51.10;;;;;;4344138;60;21091;-33
2022/01/06 00:39:58;;;;;;;89.05;71.93;;;20.50;51.10;;;;;;4338980;64;21115;-34
2022/01/06 00:44:59;;;;;;;88.10;71.18;;;20.40;51.00;;;;;;4353983;60;21104;-36
2022/01/06 00:50:00;;;;;;;89.07;71.82;;;20.50;51.00;;;;;;4341607;60;21099;-36
2022/01/06 00:55:01;;;;;;;86.45;71.20;;;20.50;51.00;;;;;;4346396;60;21031;-35
2022/01/06 01:00:03;;;;;;;82.65;68.87;;;20.50;51.10;;;;;;4338997;64;21099;-33
2022/01/06 01:05:05;;;;;;;80.03;64.65;;;20.50;50.90;;;;;;4357302;60;21066;-35
2022/01/06 01:10:06;;;;;;;82.00;68.15;;;20.50;50.90;;;;;;4363258;60;21133;-34
2022/01/06 01:15:09;;;;;;;82.30;68.78;;;20.50;50.90;;;;;;4337659;60;21128;-35
2022/01/06 01:20:10;;;;;;;84.90;67.62;;;20.50;50.90;;;;;;4349942;60;21510;-36
2022/01/06 01:25:12;;;;;;;80.68;66.05;;;20.50;50.90;;;;;;4361438;60;21099;-34
2022/01/06 01:30:14;;;;;;;80.82;66.03;;;20.50;50.80;;;;;;4338440;64;21079;-37
2022/01/06 01:35:18;;;;;;;77.95;63.08;;;20.40;50.80;;;;;;4338860;64;21595;-36
2022/01/06 01:40:19;;;;;;;75.10;61.47;;;20.40;50.80;;;;;;4368987;60;21063;-34
2022/01/06 01:45:27;;;;;;;78.40;62.83;;;20.50;50.70;;;;;;4339801;60;21195;-37
2022/01/06 01:50:27;;;;;;;;;;;20.50;50.70;;;;;;4349493;60;21570;-35
2022/01/06 01:55:34;;;;;;;75.20;59.13;;;20.50;50.60;;;;;;4338663;64;20072;-35
2022/01/06 02:00:36;;;;;;;74.00;60.63;;;20.50;50.60;;;;;;4342584;60;21163;-35
2022/01/06 02:05:37;;;;;;;70.53;59.08;;;20.40;50.60;;;;;;4361858;60;21163;-35
2022/01/06 02:10:37;;;;;;;70.15;56.85;;;20.40;50.50;;;;;;4381527;60;21099;-31
2022/01/06 02:15:38;;;;;;;69.90;57.83;;;20.40;50.50;;;;;;4354860;60;21160;-34
2022/01/06 02:20:39;;;;;;;73.20;59.15;;;20.40;50.50;;;;;;4373633;60;21614;-35
2022/01/06 02:25:40;;;;;;;70.05;58.22;;;20.40;50.40;;;;;;4363149;60;21059;-34
2022/01/06 02:30:43;;;;;;;66.55;56.25;;;20.40;50.50;;;;;;4340751;60;21063;-35
2022/01/06 02:35:45;;;;;;;67.22;55.05;;;20.40;50.40;;;;;;4381799;60;21075;-32
2022/01/06 02:40:46;;;;;;;64.53;53.85;;;20.40;50.40;;;;;;4353679;60;21127;-34
2022/01/06 02:45:47;;;;;;;64.25;52.47;;;20.40;50.40;;;;;;4351131;60;21091;-33
2022/01/06 02:50:50;;;;;;;65.80;53.45;;;20.40;50.30;;;;;;4354820;60;21071;-31
2022/01/06 02:55:53;;;;;;;62.13;52.05;;;20.40;50.40;;;;;;4378262;60;21067;-33
2022/01/06 03:00:54;;;;;;;63.35;53.50;;;20.40;50.30;;;;;;4354825;60;21594;-33
2022/01/06 03:05:55;;;;;;;62.85;52.53;;;20.40;49.90;;;;;;4381655;60;21108;-31
2022/01/06 03:10:57;;;;;;;61.50;50.60;;;20.40;50.20;;;;;;4338868;64;21083;-35
2022/01/06 03:15:59;;;;;;;58.25;49.72;;;20.40;50.20;;;;;;4356317;60;21780;-33
2022/01/06 03:21:00;;;;;;;62.15;50.78;;;20.40;50.30;;;;;;4398016;60;22216;-34
2022/01/06 03:26:00;;;;;;;57.65;49.00;;;20.40;50.30;;;;;;4345621;60;21088;-34
2022/01/06 03:31:01;;;;;;;59.75;49.80;;;20.40;50.20;;;;;;4338327;60;21466;-33
2022/01/06 03:36:02;;;;;;;56.47;46.15;;;20.40;50.10;;;;;;4348618;60;22393;-33
2022/01/06 03:41:03;;;;;;;54.80;45.92;;;20.40;50.20;;;;;;4353140;60;21162;-36
2022/01/06 03:46:04;;;;;;;52.90;45.30;;;20.40;50.20;;;;;;4350264;60;21602;-36
2022/01/06 03:51:05;;;;;;;52.80;45.10;;;20.40;50.10;;;;;;4338885;61;21385;-36
2022/01/06 03:56:06;;;;;;;51.40;43.95;;;20.40;50.70;;;;;;4353527;60;21112;-36
2022/01/06 04:01:07;;;;;;;50.22;42.65;;;20.40;50.10;;;;;;4344608;60;21522;-36
2022/01/06 04:06:10;;;;;;;54.33;45.88;;;20.40;50.00;;;;;;4339749;60;21590;-37
2022/01/06 04:11:11;;;;;;;50.30;41.20;;;20.40;50.00;;;;;;4350255;60;22353;-34
2022/01/06 04:16:14;;;;;;;52.28;44.67;;;20.40;50.10;;;;;;4355184;60;21189;-33
2022/01/06 04:21:15;;;;;;;52.53;43.87;;;20.40;50.00;;;;;;4338874;64;21595;-36
2022/01/06 04:26:17;;;;;;;49.20;42.03;;;20.40;50.00;;;;;;4338708;61;21100;-38
2022/01/06 04:31:18;;;;;;;46.75;40.35;;;20.40;49.80;;;;;;4388193;60;21498;-35
2022/01/06 04:36:20;;;;;;;49.50;40.65;;;20.40;50.00;;;;;;4339529;61;21055;-35
2022/01/06 04:41:21;;;;;;;48.47;42.10;;;20.40;49.90;;;;;;4347653;60;21525;-33
2022/01/06 04:46:22;;;;;;;46.42;39.95;;;20.40;49.90;;;;;;4338780;60;21095;-36
2022/01/06 04:51:22;;;;;;;46.17;39.33;;;20.40;49.90;;;;;;4338347;61;21152;-33
2022/01/06 04:56:24;;;;;;;46.55;38.97;;;20.40;50.00;;;;;;4346248;60;21099;-36
2022/01/06 05:01:24;;;;;;;45.40;38.35;;;20.40;50.00;;;;;;4349460;60;21043;-34
2022/01/06 05:06:26;;;;;;;44.58;38.58;;;20.40;49.90;;;;;;4338783;64;21059;-35
2022/01/06 05:11:27;;;;;;;42.65;36.90;;;20.40;49.90;;;;;;4338187;60;21152;-37
2022/01/06 05:16:27;;;;;;;44.55;37.90;;;20.30;49.80;;;;;;4340032;60;21498;-29
2022/01/06 05:21:30;;;;;;;43.15;37.78;;;20.30;50.00;;;;;;4372219;60;22168;-36
2022/01/06 05:26:31;;;;;;;43.55;38.03;;;20.40;49.80;;;;;;4338595;64;21537;-32
2022/01/06 05:31:32;;;;;;;40.58;35.00;;;20.40;49.90;;;;;;4338130;64;21133;-38
2022/01/06 05:36:33;;;;;;;40.95;34.60;;;20.40;49.90;;;;;;4366979;60;21059;-32
2022/01/06 05:41:34;;;;;;;39.70;34.80;;;20.40;50.00;;;;;;4348323;60;21542;-36
2022/01/06 05:46:35;;;;;;;39.10;34.58;;;20.40;50.00;;;;;;4338554;64;21317;-37
2022/01/06 05:51:36;;;;;;;38.90;34.22;;;20.30;49.80;;;;;;4351434;60;21100;-31
2022/01/06 05:56:37;;;;;;;40.05;34.78;;;20.30;49.80;;;;;;4350991;60;21136;-31
2022/01/06 06:01:38;;;;;;;38.35;33.60;;;20.30;49.80;;;;;;4359034;60;21915;-35
2022/01/06 06:06:39;;;;;;;40.67;35.13;;;20.30;49.80;;;;;;4351157;60;21113;-34
2022/01/06 06:11:39;;;;;;;37.33;31.80;;;20.30;49.90;;;;;;4337412;64;21079;-34
2022/01/06 06:16:41;;;;;;;36.70;31.67;;;20.30;50.00;;;;;;4339118;60;21603;-36
2022/01/06 06:21:42;;;;;;;37.25;32.35;;;20.30;49.80;;;;;;4338937;60;21585;-34
2022/01/06 06:26:42;;;;;;;37.70;32.63;;;20.30;49.80;;;;;;4358192;60;21143;-32
2022/01/06 06:31:43;;;;;;;34.28;29.50;;;20.30;49.90;;;;;;4359534;60;21095;-38
2022/01/06 06:36:44;;;;;;;36.63;30.73;;;20.30;49.80;;;;;;4361379;60;21565;-35
2022/01/06 06:41:45;;;;;;;36.28;31.42;;;20.30;49.80;;;;;;4347102;60;21067;-35
2022/01/06 06:46:46;;;;;;;34.63;30.10;;;20.30;49.80;;;;;;4340778;60;21566;-35
2022/01/06 06:51:47;;;;;;;35.65;31.08;;;20.30;49.80;;;;;;4338335;64;21083;-34
2022/01/06 06:56:48;;;;;;;34.20;30.45;;;20.30;49.70;;;;;;4338145;64;21657;-33
2022/01/06 07:01:48;;;;;;;36.00;31.20;;;20.30;49.70;;;;;;4352428;60;22030;-33
2022/01/06 07:06:49;;;;;;;35.50;30.83;;;20.30;49.70;;;;;;4338671;64;21185;-35
2022/01/06 07:11:50;;;;;;;35.63;31.52;;;20.30;49.70;;;;;;4337908;60;21187;-34
2022/01/06 07:16:51;;;;;;;35.28;31.02;;;20.30;49.70;;;;;;4353882;60;21059;-30
2022/01/06 07:21:52;;;;;;;36.00;30.05;;;20.30;49.70;;;;;;4362258;60;21048;-35
2022/01/06 07:26:53;;;;;;;36.03;31.33;;;20.30;49.80;;;;;;4363468;60;21127;-35
2022/01/06 07:31:54;;;;;;;34.63;29.55;;;20.30;49.70;;;;;;4361643;60;21129;-30
2022/01/06 07:36:54;;;;;;;33.17;29.05;;;20.30;49.70;;;;;;4376933;60;21063;-32
2022/01/06 07:41:55;;;;;;;36.72;31.75;;;20.30;49.70;;;;;;4338896;61;21617;-33
2022/01/06 07:46:56;;;;;;;35.85;31.27;;;20.30;49.70;;;;;;4356211;60;21120;-32
2022/01/06 07:51:57;;;;;;;35.00;31.15;;;20.30;49.70;;;;;;4349236;60;21618;-33
2022/01/06 07:56:58;;;;;;;36.17;31.42;;;20.30;49.70;;;;;;4338238;64;21064;-24
2022/01/06 08:01:59;;;;;;;38.50;32.65;;;20.30;49.50;;;;;;4338157;64;21602;-35
2022/01/06 08:07:00;;;;;;;35.35;30.98;;;20.30;49.60;;;;;;4357627;60;21083;-35
2022/01/06 08:12:01;;;;;;;36.20;31.67;;;20.30;49.60;;;;;;4374720;60;21091;-30
2022/01/06 08:17:02;;;;;;;39.13;32.88;;;20.30;49.70;;;;;;4348729;60;21586;-35
2022/01/06 08:22:03;;;;;;;36.70;32.28;;;20.40;49.80;;;;;;4339001;60;21044;-34
2022/01/06 08:27:08;;;;;;;40.42;33.38;;;20.40;50.00;;;;;;4380464;60;21127;-36
2022/01/06 08:32:09;;;;;;;40.10;32.72;;;20.50;50.20;;;;;;4344613;60;21739;-34
2022/01/06 08:37:10;;;;;;;38.72;33.15;;;20.50;50.30;;;;;;4365392;60;21094;-35
2022/01/06 08:42:14;;;;;;;40.55;34.40;;;20.50;50.40;;;;;;4350195;60;21116;-39
2022/01/06 08:47:15;;;;;;;43.55;36.33;;;20.60;50.60;;;;;;4381413;60;21083;-32
2022/01/06 08:52:16;;;;;;;45.17;38.30;;;20.60;50.70;;;;;;4345282;60;21608;-31
2022/01/06 08:57:18;;;;;;;48.67;38.80;;;20.60;50.60;;;;;;4383471;60;21045;-24
2022/01/06 09:02:19;;;;;;;47.62;40.20;;;20.60;50.60;;;;;;4343923;60;21551;-33
2022/01/06 09:07:20;;;;;;;48.42;40.22;;;20.60;50.80;;;;;;4338254;64;21123;-35
2022/01/06 09:12:21;;;;;;;50.03;42.20;;;20.70;51.00;;;;;;4364930;60;21562;-42
2022/01/06 09:17:22;;;;;;;47.85;39.50;;;20.70;51.00;;;;;;4345958;60;21081;-29
2022/01/06 09:22:22;;;;;;;54.95;44.85;;;20.70;51.10;;;;;;4338510;64;21068;-35
2022/01/06 09:27:23;;;;;;;54.00;44.65;;;20.70;51.30;;;;;;4346439;60;21067;-38
2022/01/06 09:32:24;;;;;;;58.75;47.17;;;20.70;51.30;;;;;;4344451;60;21514;-33
2022/01/06 09:37:25;;;;;;;59.08;46.95;;;20.70;51.30;;;;;;4361546;60;21601;-36
2022/01/06 09:42:26;;;;;;;59.70;49.22;;;20.70;51.20;;;;;;4349221;60;21164;-34
2022/01/06 09:47:29;;;;;;;62.83;50.05;;;20.70;51.10;;;;;;4346493;60;21103;-34
2022/01/06 09:52:30;;;;;;;62.58;51.55;;;20.70;51.00;;;;;;4337797;64;21616;-32
2022/01/06 09:57:31;;;;;;;63.50;50.65;;;20.70;51.00;;;;;;4344772;60;21132;-37
2022/01/06 10:02:34;;;;;;;64.68;51.90;;;20.70;50.80;;;;;;4344591;60;21589;-37
2022/01/06 10:07:39;;;;;;;71.07;54.92;;;20.70;50.80;;;;;;4340963;60;21067;-33
2022/01/06 10:12:42;;;;;;;66.10;52.22;;;20.70;50.90;;;;;;4376572;60;21119;-33
2022/01/06 10:17:43;;;;;;;71.18;55.38;;;20.70;51.10;;;;;;4392489;60;21669;-33
2022/01/06 10:22:52;;;;;;;76.10;58.50;;;20.80;51.20;;;;;;4345549;60;21538;-34
2022/01/06 10:27:56;;;;;;;78.85;59.90;;;20.90;51.50;;;;;;4378697;60;21118;-33
2022/01/06 10:32:58;;;;;;;83.62;61.80;;;20.90;51.70;;;;;;4362948;60;21641;-33
2022/01/06 10:37:59;;;;;;;86.63;65.40;;;20.90;52.00;;;;;;4362421;60;21052;-33
2022/01/06 10:43:05;;;;;;;80.93;62.90;;;21.00;52.10;;;;;;4362443;60;21542;-34
2022/01/06 10:48:06;;;;;;;84.40;62.65;;;21.00;52.30;;;;;;4338056;64;21534;-35
2022/01/06 10:53:10;;;;;;;85.97;67.65;;;21.00;52.40;;;;;;4368816;60;21076;-35
2022/01/06 10:58:20;;;;;;;85.60;67.35;;;21.10;52.70;;;;;;4338170;61;21654;-35
2022/01/06 11:03:23;;;;;;;91.57;69.53;;;21.10;52.90;;;;;;4356865;60;21160;-33
2022/01/06 11:08:27;;;;;;;92.05;68.93;;;21.10;52.90;;;;;;4343384;60;21562;-35
2022/01/06 11:13:37;;;;;;;95.18;70.20;;;21.20;53.20;;;;;;4349866;60;21662;-35
2022/01/06 11:18:40;;;;;;;97.32;74.45;;;21.20;53.20;;;;;;4342988;60;21169;-34
2022/01/06 11:23:41;;;;;;;101.53;78.70;;;21.20;53.40;;;;;;4358915;60;21123;-30
2022/01/06 11:28:52;;;;;;;101.55;77.80;;;21.20;53.60;;;;;;4349558;60;21086;-33
2022/01/06 11:33:56;;;;;;;108.75;83.50;;;21.30;53.80;;;;;;4339713;60;21097;-33
2022/01/06 11:38:59;;;;;;;105.82;82.22;;;21.30;54.10;;;;;;4350656;60;21576;-34
2022/01/06 11:44:02;;;;;;;117.50;89.40;;;21.30;54.10;;;;;;4338229;60;21044;-33
2022/01/06 11:49:03;;;;;;;117.93;91.10;;;21.30;54.20;;;;;;4341648;60;21602;-30
2022/01/06 11:54:19;;;;;;;118.95;89.93;;;21.30;54.30;;;;;;4344297;60;21043;-31
2022/01/06 11:59:34;;;;;;;127.93;99.40;;;21.30;54.40;;;;;;4355317;60;21039;-36
2022/01/06 12:04:38;;;;;;;131.07;101.40;;;21.40;54.50;;;;;;4347958;60;21489;-32
2022/01/06 12:09:39;;;;;;;129.65;100.03;;;21.40;54.60;;;;;;4355515;60;21542;-34
2022/01/06 12:14:40;;;;;;;139.88;106.05;;;21.40;54.70;;;;;;4365367;60;21083;-33
2022/01/06 12:19:41;;;;;;;151.37;111.65;;;21.40;54.90;;;;;;4354419;60;21068;-34
2022/01/06 12:24:43;;;;;;;142.65;108.45;;;21.40;54.40;;;;;;4339338;64;21533;-31
2022/01/06 12:29:44;;;;;;;154.57;116.07;;;21.30;54.40;;;;;;4360275;60;21104;-35
2022/01/06 12:34:56;;;;;;;154.63;119.28;;;21.30;54.30;;;;;;4382086;60;21068;-34
2022/01/06 12:39:59;;;;;;;168.80;123.53;;;21.30;54.10;;;;;;4371516;60;21566;-35
2022/01/06 12:45:06;;;;;;;169.27;128.45;;;21.20;53.90;;;;;;4340156;60;21039;-34
2022/01/06 12:50:07;;;;;;;165.43;123.57;;;21.20;53.80;;;;;;4345560;60;21068;-34
2022/01/06 12:55:11;;;;;;;166.68;128.85;;;21.20;53.70;;;;;;4357006;60;21470;-35
2022/01/06 13:00:12;;;;;;;177.25;133.20;;;21.20;53.70;;;;;;4345608;60;21423;-33
2022/01/06 13:05:14;;;;;;;172.85;132.23;;;21.20;53.70;;;;;;4370856;60;21055;-31
2022/01/06 13:10:17;;;;;;;175.32;131.80;;;21.20;53.80;;;;;;4342989;60;21983;-34
2022/01/06 13:15:18;;;;;;;167.15;129.55;;;21.20;53.90;;;;;;4344423;60;21606;-34
2022/01/06 13:20:19;;;;;;;171.48;134.68;;;21.20;54.00;;;;;;4358051;60;21156;-30
2022/01/06 13:25:28;;;;;;;182.65;139.80;;;21.20;54.10;;;;;;4353173;60;21035;-32
2022/01/06 13:30:31;;;;;;;179.27;141.15;;;21.20;54.00;;;;;;4337711;64;21119;-31
2022/01/06 13:35:32;;;;;;;181.90;142.32;;;21.20;54.10;;;;;;4347368;60;21125;-32
2022/01/06 13:40:43;;;;;;;186.25;141.57;;;21.30;54.30;;;;;;4358695;60;21083;-33
2022/01/06 13:45:48;;;;;;;184.85;140.95;;;21.30;54.80;;;;;;4358069;60;21052;-34
2022/01/06 13:51:08;;;;;;;184.63;140.18;;;21.30;54.50;;;;;;4360531;60;21609;-27
2022/01/06 13:56:12;;;;;;;189.90;143.93;;;21.30;54.80;;;;;;4339168;64;21556;-28
2022/01/06 14:01:15;;;;;;;184.65;141.95;;;21.40;54.90;;;;;;4347790;60;21095;-33
2022/01/06 14:06:18;;;;;;;187.27;143.50;;;21.40;55.00;;;;;;4388316;60;21213;-31
2022/01/06 14:11:20;;;;;;;189.30;143.82;;;21.40;55.10;;;;;;4348134;60;21099;-32
2022/01/06 14:16:21;;;;;;;191.55;147.45;;;21.40;55.10;;;;;;4346784;60;21040;-32
2022/01/06 14:21:22;;;;;;;193.43;146.37;;;21.40;55.20;;;;;;4359879;60;21538;-31
2022/01/06 14:26:23;;;;;;;190.73;142.00;;;21.50;55.40;;;;;;4348068;60;21032;-29
2022/01/06 14:31:24;;;;;;;190.82;144.02;;;21.50;55.40;;;;;;4340471;60;21111;-32
2022/01/06 14:36:25;;;;;;;196.70;146.98;;;21.50;55.60;;;;;;4368127;60;21052;-29
2022/01/06 14:41:27;;;;;;;200.95;150.50;;;21.50;55.70;;;;;;4350205;60;21617;-29
2022/01/06 14:46:27;;;;;;;183.20;138.82;;;21.50;55.70;;;;;;4345948;60;21142;-35
2022/01/06 14:51:30;;;;;;;184.20;141.88;;;21.50;55.60;;;;;;4346726;60;21058;-32
2022/01/06 14:56:31;;;;;;;188.43;143.93;;;21.50;55.70;;;;;;4338852;60;21531;-33
2022/01/06 15:01:32;;;;;;;194.07;152.65;;;21.50;55.80;;;;;;4358340;60;21071;-37
2022/01/06 15:06:33;;;;;;;195.00;149.77;;;21.40;55.50;;;;;;4405720;60;21510;-35
2022/01/06 15:11:33;;;;;;;197.35;154.63;;;21.40;55.40;;;;;;4369699;60;21087;-36
2022/01/06 15:16:35;;;;;;;198.77;148.98;;;21.40;55.30;;;;;;4357084;60;21052;-35
2022/01/06 15:21:37;;;;;;;190.80;151.32;;;21.40;55.10;;;;;;4359350;60;21100;-34
2022/01/06 15:26:38;;;;;;;201.73;159.70;;;21.30;54.90;;;;;;4387100;60;21624;-33
2022/01/06 15:31:39;;;;;;;196.07;153.40;;;21.30;54.90;;;;;;4376360;60;21158;-36
2022/01/06 15:36:40;;;;;;;205.35;157.73;;;21.30;54.70;;;;;;4344451;60;21071;-34
2022/01/06 15:41:41;;;;;;;193.60;153.75;;;21.30;54.50;;;;;;4365838;60;21554;-32
2022/01/06 15:46:42;;;;;;;198.48;155.50;;;21.30;54.50;;;;;;4354283;60;21092;-31
2022/01/06 15:51:43;;;;;;;189.52;147.55;;;21.30;55.10;;;;;;4345127;60;21183;-33
2022/01/06 15:56:48;;;;;;;197.40;152.05;;;21.30;54.50;;;;;;4354710;60;21107;-36
2022/01/06 16:07:52;;;;;;;206.38;162.88;;;21.30;54.50;;;;;;4349768;60;21554;-35
2022/01/06 16:12:53;;;;;;;201.27;154.63;;;21.20;54.50;;;;;;4337321;64;21626;-33
2022/01/06 16:17:54;;;;;;;200.40;156.73;;;21.20;54.40;;;;;;4342558;60;21111;-33
2022/01/06 16:22:55;;;;;;;206.60;160.90;;;21.10;54.20;;;;;;4347460;60;21582;-31
2022/01/06 16:27:56;;;;;;;199.43;155.93;;;21.10;54.10;;;;;;4338418;64;21074;-34
2022/01/06 16:32:57;;;;;;;207.55;161.55;;;21.10;54.20;;;;;;4353922;60;21155;-35
2022/01/06 16:37:58;;;;;;;199.82;157.88;;;21.00;54.00;;;;;;4348369;60;21051;-36
2022/01/06 16:42:59;;;;;;;201.77;161.88;;;21.00;54.00;;;;;;4338615;64;21063;-31
2022/01/06 16:48:01;;;;;;;198.43;157.27;;;21.00;54.00;;;;;;4353903;60;21649;-34
2022/01/06 16:53:02;;;;;;;202.27;159.40;;;21.00;53.90;;;;;;4346313;60;21135;-33
2022/01/06 16:58:03;;;;;;;199.40;157.45;;;21.00;53.90;;;;;;4339157;60;21051;-35
2022/01/06 17:03:06;;;;;;;202.07;161.77;;;20.90;53.70;;;;;;4348234;60;21527;-35
2022/01/06 17:08:08;;;;;;;204.60;158.85;;;20.90;53.70;;;;;;4362058;60;21622;-33
2022/01/06 17:13:09;;;;;;;196.57;157.50;;;20.90;53.60;;;;;;4347810;60;21636;-34
2022/01/06 17:18:10;;;;;;;197.10;155.50;;;20.90;53.50;;;;;;4370480;60;21200;-30
2022/01/06 17:23:12;;;;;;;199.30;159.95;;;20.90;53.50;;;;;;4383144;60;21135;-33
2022/01/06 17:28:12;;;;;;;201.98;158.75;;;20.90;53.50;;;;;;4339055;60;21133;-33
2022/01/06 17:33:13;;;;;;;200.90;160.40;;;20.90;53.40;;;;;;4338430;64;21525;-33
2022/01/06 17:38:14;;;;;;;202.60;158.02;;;20.90;53.30;;;;;;4339204;64;21557;-35
2022/01/06 17:43:18;;;;;;;198.50;161.62;;;20.80;53.30;;;;;;4339863;60;21522;-32
2022/01/06 17:48:19;;;;;;;202.77;159.07;;;20.80;53.20;;;;;;4342251;60;21161;-34
2022/01/06 17:53:20;;;;;;;198.60;156.80;;;20.80;53.20;;;;;;4343585;60;21055;-33
2022/01/06 17:58:22;;;;;;;193.13;154.90;;;20.80;53.10;;;;;;4359835;60;21055;-33
2022/01/06 18:03:23;;;;;;;187.70;151.12;;;20.80;53.00;;;;;;4354061;60;21548;-31
2022/01/06 18:14:12;;;;;;;194.65;153.45;;;20.80;52.90;;;;;;4352615;60;21071;-30
2022/01/06 18:19:15;;;;;;;191.40;150.00;;;20.80;52.90;;;;;;4358976;60;21035;-32
2022/01/06 18:28:37;;;;;;;189.05;151.87;;;20.80;52.80;;;;;;4758436;54;22171;-36
2022/01/06 18:33:41;;;;;;;190.95;154.38;;;20.70;52.70;;;;;;4787188;54;21544;-35
2022/01/06 18:38:46;;;;;;;193.25;154.90;;;20.70;52.60;;;;;;4743190;58;21043;-34
2022/01/06 18:43:48;;;;;;;198.25;159.10;;;20.80;52.70;;;;;;4746046;55;21013;-34
2022/01/06 18:48:49;;;;;;;201.88;157.57;;;20.70;52.50;;;;;;4763439;55;21069;-34
2022/01/06 18:53:50;;;;;;;187.55;152.23;;;20.80;52.60;;;;;;4775655;55;21540;-32
2022/01/06 18:58:52;;;;;;;188.30;150.77;;;20.70;52.50;;;;;;4762013;55;21010;-35
2022/01/06 19:03:53;;;;;;;184.43;147.75;;;20.70;52.50;;;;;;4748296;55;21484;-35
2022/01/06 19:08:54;;;;;;;187.82;150.12;;;20.70;52.50;;;;;;4825124;55;21166;-33
2022/01/06 19:13:55;;;;;;;194.37;153.12;;;20.70;52.40;;;;;;4748158;55;21030;-34
2022/01/06 19:18:55;;;;;;;190.30;152.90;;;20.70;52.30;;;;;;4739817;58;21022;-34
2022/01/06 19:23:57;;;;;;;185.20;147.68;;;20.70;52.30;;;;;;4766009;55;21069;-35
2022/01/06 19:28:58;;;;;;;191.30;156.52;;;20.70;52.30;;;;;;4796666;55;21499;-31
2022/01/06 19:33:59;;;;;;;184.07;150.23;;;20.70;52.30;;;;;;4754620;55;21484;-34
2022/01/06 19:39:00;;;;;;;184.57;150.18;;;20.70;52.20;;;;;;4738428;58;21132;-33
2022/01/06 19:44:00;;;;;;;191.07;152.10;;;20.70;52.20;;;;;;4751016;55;21026;-35
2022/01/06 19:49:01;;;;;;;186.93;150.27;;;20.70;52.40;;;;;;4776125;55;21219;-33
2022/01/06 19:54:02;;;;;;;180.23;146.00;;;20.70;52.10;;;;;;4757419;55;21033;-33
2022/01/06 19:59:03;;;;;;;178.82;145.48;;;20.70;52.00;;;;;;4777104;55;21034;-33
2022/01/06 20:04:04;;;;;;;183.57;145.82;;;20.70;52.00;;;;;;4751228;55;22052;-32
2022/01/06 20:09:06;;;;;;;187.40;150.60;;;20.70;52.00;;;;;;4743112;55;21022;-34
2022/01/06 20:14:06;;;;;;;179.48;146.45;;;20.70;52.00;;;;;;4741946;55;21026;-35
2022/01/06 20:19:07;;;;;;;184.57;149.35;;;20.70;51.90;;;;;;4751425;55;20998;-33
2022/01/06 20:24:09;;;;;;;177.75;143.48;;;20.70;52.50;;;;;;4757871;55;21002;-34
2022/01/06 20:29:09;;;;;;;182.98;149.55;;;20.60;51.80;;;;;;4738865;59;21089;-34
2022/01/06 20:34:10;;;;;;;178.15;145.68;;;20.60;51.80;;;;;;4777470;55;21097;-35
2022/01/06 20:39:11;;;;;;;178.87;145.02;;;20.70;52.50;;;;;;4758041;55;21029;-35
2022/01/06 20:44:12;;;;;;;176.98;145.15;;;20.60;51.80;;;;;;4751673;55;21579;-39
2022/01/06 20:54:36;;;;;;;174.20;142.60;;;20.70;51.80;;;;;;4737559;55;21061;-31
2022/01/06 20:59:37;;;;;;;176.70;144.52;;;20.70;51.70;;;;;;4750449;55;21551;-32
2022/01/06 21:04:37;;;;;;;177.77;142.77;;;20.70;51.70;;;;;;4762621;55;21070;-31
2022/01/06 21:09:38;;;;;;;172.40;138.48;;;20.70;51.70;;;;;;4738735;59;21670;-33
2022/01/06 21:14:39;;;;;;;170.65;139.55;;;20.70;52.30;;;;;;4750699;55;21509;-34
2022/01/06 21:19:40;;;;;;;174.20;144.27;;;20.70;51.60;;;;;;4739695;55;21054;-34
2022/01/06 21:24:41;;;;;;;172.62;141.98;;;20.70;51.60;;;;;;4737583;59;21105;-35
2022/01/06 21:29:42;;;;;;;169.62;137.32;;;20.70;51.70;;;;;;4753069;55;21070;-33
2022/01/06 21:34:43;;;;;;;177.87;143.95;;;20.60;51.50;;;;;;4737998;59;21002;-33
2022/01/06 21:39:44;;;;;;;173.40;142.62;;;20.60;51.50;;;;;;4745333;55;21026;-35
2022/01/06 21:44:46;;;;;;;167.45;138.45;;;20.60;51.40;;;;;;4737698;55;21026;-34
2022/01/06 21:49:47;;;;;;;173.65;139.10;;;20.60;51.40;;;;;;4743550;55;20994;-33
2022/01/06 21:54:48;;;;;;;168.30;136.45;;;20.60;51.40;;;;;;4752615;55;21475;-36
2022/01/06 21:59:48;;;;;;;173.23;141.60;;;20.60;51.30;;;;;;4800535;55;20986;-36
2022/01/06 22:04:49;;;;;;;166.00;138.93;;;20.60;51.30;;;;;;4744177;55;21041;-34
2022/01/06 22:09:51;;;;;;;169.85;136.77;;;20.60;51.20;;;;;;4742546;55;21042;-36
2022/01/06 22:14:51;;;;;;;166.95;136.90;;;20.60;51.20;;;;;;4742103;55;21575;-37
2022/01/06 22:19:54;;;;;;;167.85;138.90;;;20.60;51.20;;;;;;4776762;55;21033;-33
2022/01/06 22:24:56;;;;;;;153.38;125.95;;;20.60;51.10;;;;;;4751926;55;21041;-35
2022/01/06 22:29:57;;;;;;;166.90;136.23;;;20.60;51.20;;;;;;4751612;55;21009;-36
2022/01/06 22:34:58;;;;;;;165.55;135.45;;;20.60;51.10;;;;;;4737833;59;21014;-35
2022/01/06 22:39:59;;;;;;;160.68;130.93;;;20.60;51.00;;;;;;4756665;55;21496;-35
2022/01/06 22:44:59;;;;;;;162.48;135.63;;;20.60;51.10;;;;;;4745549;55;21006;-30
2022/01/06 22:50:01;;;;;;;164.23;133.27;;;20.60;51.00;;;;;;4742290;55;21480;-35
2022/01/06 22:55:05;;;;;;;168.00;133.23;;;20.60;51.00;;;;;;4773704;55;21464;-37
2022/01/06 23:00:17;;;;;;;156.85;127.32;;;20.60;51.60;;;;;;4746068;55;21069;-37
2022/01/06 23:05:19;;;;;;;151.30;121.90;;;20.60;50.80;;;;;;4779556;55;21614;-33
2022/01/06 23:10:21;;;;;;;155.85;127.05;;;20.60;50.90;;;;;;4771655;55;21062;-35
2022/01/06 23:15:24;;;;;;;156.25;126.38;;;20.60;50.80;;;;;;4778084;55;21013;-35
2022/01/06 23:20:25;;;;;;;150.80;124.53;;;20.60;50.80;;;;;;4750324;55;21496;-35
2022/01/06 23:25:27;;;;;;;157.85;129.15;;;20.50;50.70;;;;;;4752274;55;21017;-33
2022/01/06 23:30:27;;;;;;;157.57;128.05;;;20.60;50.70;;;;;;4771662;55;22241;-34
2022/01/06 23:35:29;;;;;;;149.02;121.45;;;20.50;50.60;;;;;;4748442;55;21165;-36
2022/01/06 23:40:30;;;;;;;154.95;127.22;;;20.50;50.60;;;;;;4747255;55;21006;-36
2022/01/06 23:45:33;;;;;;;148.93;119.50;;;20.50;50.50;;;;;;4755511;55;21022;-36
2022/01/06 23:50:34;;;;;;;156.37;127.53;;;20.50;50.50;;;;;;4759431;55;20986;-33
2022/01/06 23:55:35;;;;;;;154.95;125.43;;;20.50;50.40;;;;;;4743545;55;21054;-33
